Time;durP1;ratioP1;P1;durP2;ratioP2;P2;SDS_P1;SDS_P2;PMS_P1;PMS_P2;Temp;Humidity;BMP_temperature;BMP_pressure;BME280_temperature;BME280_humidity;BME280_pressure;Samples;Min_cycle;Max_cycle;Signal;HPM_P1;HPM_P2
2022/02/21 00:01:50;;;;;;;0.47;0.20;;;5.70;99.90;;;;;;5036995;28;20405;-86
2022/02/21 00:04:15;;;;;;;1.80;0.20;;;5.70;99.90;;;;;;5054619;28;20359;-84
2022/02/21 00:06:44;;;;;;;1.13;0.20;;;5.70;99.90;;;;;;5020402;28;20056;-86
2022/02/21 00:09:10;;;;;;;1.03;0.20;;;5.70;99.90;;;;;;5020632;28;20067;-86
2022/02/21 00:11:36;;;;;;;3.50;0.20;;;5.60;99.90;;;;;;5038065;28;20028;-86
2022/02/21 00:14:02;;;;;;;1.07;0.20;;;5.60;99.90;;;;;;5036741;28;20461;-87
2022/02/21 00:16:28;;;;;;;0.80;0.20;;;5.60;99.90;;;;;;5003912;28;20120;-87
2022/02/21 00:18:53;;;;;;;1.20;0.30;;;5.60;99.90;;;;;;5036534;28;20021;-88
2022/02/21 00:21:19;;;;;;;2.30;0.30;;;5.60;99.90;;;;;;5037238;28;20052;-86
2022/02/21 00:23:44;;;;;;;1.33;0.40;;;5.70;99.90;;;;;;5037243;28;20112;-86
2022/02/21 00:26:10;;;;;;;0.70;0.17;;;5.50;99.90;;;;;;5036772;28;20029;-83
2022/02/21 00:28:36;;;;;;;2.10;0.30;;;5.50;99.90;;;;;;5020163;28;20044;-85
2022/02/21 00:31:02;;;;;;;1.23;0.20;;;5.50;99.90;;;;;;5036547;28;20032;-87
2022/02/21 00:33:27;;;;;;;1.50;0.30;;;5.50;99.90;;;;;;5036302;28;20465;-87
2022/02/21 00:35:53;;;;;;;0.43;0.20;;;5.40;99.90;;;;;;5036555;28;20473;-87
2022/02/21 00:38:19;;;;;;;0.97;0.20;;;5.40;99.90;;;;;;5020056;28;20029;-86
2022/02/21 00:40:44;;;;;;;1.13;0.30;;;5.40;99.90;;;;;;5020263;28;20017;-85
2022/02/21 00:43:10;;;;;;;1.13;0.20;;;5.40;99.90;;;;;;5019792;28;20385;-86
2022/02/21 00:45:36;;;;;;;1.60;0.40;;;5.40;99.90;;;;;;5036597;28;20029;-87
2022/02/21 00:48:01;;;;;;;1.63;0.27;;;5.50;99.90;;;;;;5036319;28;20037;-85
2022/02/21 00:50:27;;;;;;;3.13;0.40;;;5.50;99.90;;;;;;5019681;28;20025;-87
2022/02/21 00:52:53;;;;;;;1.67;0.30;;;5.40;99.90;;;;;;5036160;28;20037;-87
2022/02/21 00:55:18;;;;;;;3.97;0.40;;;5.40;99.90;;;;;;5036030;28;20127;-86
2022/02/21 00:57:44;;;;;;;1.77;0.37;;;5.40;99.90;;;;;;5036388;28;20017;-86
2022/02/21 01:00:10;;;;;;;4.73;0.70;;;5.40;99.90;;;;;;5035583;28;20025;-86
2022/02/21 01:02:36;;;;;;;3.40;0.27;;;5.40;99.90;;;;;;5019990;28;20048;-87
2022/02/21 01:05:03;;;;;;;1.33;0.30;;;5.40;99.90;;;;;;5053727;28;20389;-86
2022/02/21 01:07:28;;;;;;;3.07;0.40;;;5.40;99.90;;;;;;5035842;28;20545;-86
2022/02/21 01:09:54;;;;;;;3.60;0.40;;;5.40;99.90;;;;;;5053717;28;20056;-88
2022/02/21 01:12:20;;;;;;;4.07;0.60;;;5.40;99.90;;;;;;5019755;28;20031;-86
2022/02/21 01:14:45;;;;;;;1.40;0.30;;;5.50;99.90;;;;;;5035770;28;20134;-87
2022/02/21 01:17:11;;;;;;;3.43;0.30;;;5.50;99.90;;;;;;5053590;28;20025;-86
2022/02/21 01:19:37;;;;;;;1.67;0.40;;;5.40;99.90;;;;;;5035768;28;20037;-86
2022/02/21 01:22:03;;;;;;;1.40;0.30;;;5.40;99.90;;;;;;5019521;28;20025;-84
2022/02/21 01:24:29;;;;;;;1.83;0.30;;;5.40;99.90;;;;;;5053499;28;20033;-87
2022/02/21 01:26:55;;;;;;;1.43;0.30;;;5.30;99.90;;;;;;5019207;28;20125;-86
2022/02/21 01:29:21;;;;;;;3.13;0.30;;;5.40;99.90;;;;;;5019634;28;20048;-86
2022/02/21 01:31:47;;;;;;;1.00;0.30;;;5.30;99.90;;;;;;5035869;28;20044;-86
2022/02/21 01:34:13;;;;;;;0.77;0.40;;;5.30;99.90;;;;;;5053490;28;20029;-85
2022/02/21 01:36:40;;;;;;;2.73;0.40;;;5.30;99.90;;;;;;5003114;28;20063;-87
2022/02/21 01:39:07;;;;;;;3.13;0.40;;;5.30;99.90;;;;;;5053708;28;20485;-87
2022/02/21 01:41:33;;;;;;;1.53;0.30;;;5.30;99.90;;;;;;5035797;28;20025;-87
2022/02/21 01:44:10;;;;;;;0.93;0.30;;;5.30;99.90;;;;;;5019248;28;20033;-87
2022/02/21 01:46:39;;;;;;;2.93;0.33;;;5.30;99.90;;;;;;5019415;28;20396;-87
2022/02/21 01:49:07;;;;;;;1.73;0.30;;;5.30;99.90;;;;;;5035529;28;20028;-87
2022/02/21 01:51:34;;;;;;;2.03;0.40;;;5.30;99.90;;;;;;5035880;28;20021;-86
2022/02/21 01:54:03;;;;;;;1.90;0.40;;;5.20;99.90;;;;;;5053454;28;20025;-87
2022/02/21 01:56:28;;;;;;;2.13;0.30;;;5.30;99.90;;;;;;5035510;28;20028;-85
2022/02/21 01:58:54;;;;;;;1.97;0.40;;;5.30;99.90;;;;;;5035373;28;20033;-87
2022/02/21 02:01:20;;;;;;;2.70;0.40;;;5.10;99.90;;;;;;5035193;28;20565;-88
2022/02/21 02:03:47;;;;;;;2.60;0.30;;;5.20;99.90;;;;;;5035661;28;20484;-85
2022/02/21 02:06:13;;;;;;;3.13;0.23;;;5.30;99.90;;;;;;5035108;28;20036;-88
2022/02/21 02:08:39;;;;;;;0.67;0.30;;;5.20;99.90;;;;;;5019389;28;20033;-88
2022/02/21 02:11:06;;;;;;;1.63;0.20;;;5.20;99.90;;;;;;5018744;28;20044;-86
2022/02/21 02:13:31;;;;;;;2.93;0.40;;;5.30;99.90;;;;;;5021953;28;20492;-87
2022/02/21 02:15:57;;;;;;;2.70;0.30;;;5.30;99.90;;;;;;5039239;28;20108;-87
2022/02/21 02:18:23;;;;;;;0.93;0.20;;;5.30;99.90;;;;;;5038959;28;20389;-88
2022/02/21 02:20:49;;;;;;;0.70;0.30;;;5.20;99.90;;;;;;5038969;28;20025;-87
2022/02/21 02:23:16;;;;;;;2.00;0.40;;;5.20;99.90;;;;;;5038961;28;20032;-87
2022/02/21 02:25:42;;;;;;;2.47;0.33;;;5.20;99.90;;;;;;5039335;28;20538;-88
2022/02/21 02:28:08;;;;;;;0.77;0.20;;;5.20;99.90;;;;;;5056821;28;20060;-87
2022/02/21 02:30:34;;;;;;;1.67;0.30;;;5.20;99.90;;;;;;5038760;28;20036;-86
2022/02/21 02:33:00;;;;;;;0.67;0.27;;;5.20;99.90;;;;;;5038727;28;20465;-88
2022/02/21 02:35:27;;;;;;;4.27;0.37;;;5.20;99.90;;;;;;5022379;28;20025;-86
2022/02/21 02:37:54;;;;;;;1.40;0.30;;;5.20;99.90;;;;;;5022600;28;20540;-87
2022/02/21 02:40:20;;;;;;;2.80;0.40;;;5.10;99.90;;;;;;5038738;28;20071;-86
2022/02/21 02:42:46;;;;;;;4.10;0.40;;;5.00;99.90;;;;;;5056477;28;20064;-86
2022/02/21 02:45:13;;;;;;;3.67;0.47;;;4.90;99.90;;;;;;5022075;28;20037;-87
2022/02/21 02:47:39;;;;;;;2.57;0.43;;;4.90;99.90;;;;;;5022445;28;20061;-87
2022/02/21 02:50:06;;;;;;;5.77;1.20;;;4.80;99.90;;;;;;5038342;28;20041;-86
2022/02/21 02:52:31;;;;;;;4.40;0.50;;;4.70;99.90;;;;;;5038673;28;20029;-88
2022/02/21 02:54:57;;;;;;;4.63;0.67;;;4.70;99.90;;;;;;5021837;28;20389;-88
2022/02/21 02:57:23;;;;;;;6.37;0.60;;;4.60;99.90;;;;;;5056126;28;20033;-84
2022/02/21 02:59:48;;;;;;;4.70;0.50;;;4.70;99.90;;;;;;5038577;28;20025;-86
2022/02/21 03:02:14;;;;;;;3.17;0.60;;;4.80;99.90;;;;;;5038145;28;20084;-86
2022/02/21 03:04:40;;;;;;;7.07;0.70;;;4.60;99.90;;;;;;5038395;28;20048;-87
2022/02/21 03:07:05;;;;;;;7.10;0.70;;;4.60;99.90;;;;;;5022072;28;20090;-88
2022/02/21 03:09:31;;;;;;;2.23;0.50;;;4.60;99.90;;;;;;5021627;28;20087;-86
2022/02/21 03:11:57;;;;;;;2.63;0.40;;;4.50;99.90;;;;;;5038172;28;20104;-89
2022/02/21 03:14:24;;;;;;;4.10;0.50;;;4.50;99.90;;;;;;5021805;28;20116;-88
2022/02/21 03:16:49;;;;;;;2.60;0.40;;;4.50;99.90;;;;;;5055640;28;20036;-89
2022/02/21 03:19:15;;;;;;;3.90;0.50;;;4.60;99.90;;;;;;5038114;28;20025;-85
2022/02/21 03:21:41;;;;;;;2.53;0.50;;;4.40;99.90;;;;;;5023437;28;20025;-86
2022/02/21 03:24:07;;;;;;;2.10;0.40;;;4.50;99.90;;;;;;5021293;28;20021;-89
2022/02/21 03:26:32;;;;;;;4.47;0.53;;;4.50;99.90;;;;;;5037919;28;20021;-87
2022/02/21 03:28:58;;;;;;;4.80;0.50;;;4.40;99.90;;;;;;5055669;28;20021;-86
2022/02/21 03:31:24;;;;;;;3.87;0.40;;;4.50;99.90;;;;;;5022599;28;20048;-85
2022/02/21 03:33:49;;;;;;;5.23;0.53;;;4.40;99.90;;;;;;5021142;28;20025;-87
2022/02/21 03:36:15;;;;;;;3.83;0.40;;;4.40;99.90;;;;;;5038167;28;20035;-87
2022/02/21 03:38:42;;;;;;;6.40;0.80;;;4.40;99.90;;;;;;5020992;28;20107;-85
2022/02/21 03:41:08;;;;;;;6.40;0.80;;;4.10;99.90;;;;;;5055880;28;20416;-86
2022/02/21 03:43:33;;;;;;;9.97;1.27;;;4.00;99.90;;;;;;5037460;28;20033;-86
2022/02/21 03:45:59;;;;;;;7.57;1.10;;;3.90;99.90;;;;;;5037557;28;20028;-85
2022/02/21 03:48:25;;;;;;;4.67;0.50;;;3.90;99.90;;;;;;5055422;28;20538;-86
2022/02/21 03:50:50;;;;;;;2.70;0.50;;;3.90;99.90;;;;;;5055290;28;20433;-86
2022/02/21 03:53:16;;;;;;;5.03;0.70;;;4.00;99.90;;;;;;5037734;28;20033;-86
2022/02/21 03:55:42;;;;;;;4.70;0.73;;;3.90;99.90;;;;;;5055447;28;20017;-88
2022/02/21 03:58:07;;;;;;;6.07;0.67;;;4.00;99.90;;;;;;5038418;28;20021;-85
2022/02/21 04:00:33;;;;;;;7.33;0.87;;;4.00;99.90;;;;;;5022199;28;20115;-88
2022/02/21 04:02:58;;;;;;;8.53;0.83;;;4.00;99.90;;;;;;5021461;28;20045;-87
2022/02/21 04:05:24;;;;;;;7.23;0.90;;;4.00;99.90;;;;;;5022068;28;20052;-86
2022/02/21 04:07:50;;;;;;;11.87;0.93;;;4.00;99.90;;;;;;5020651;28;20033;-86
2022/02/21 04:10:18;;;;;;;9.03;0.90;;;4.10;99.90;;;;;;5037107;28;20048;-86
2022/02/21 04:12:44;;;;;;;7.33;0.60;;;4.00;99.90;;;;;;5037146;28;20107;-86
2022/02/21 04:15:11;;;;;;;7.37;0.83;;;4.10;99.90;;;;;;5054549;28;20385;-85
2022/02/21 04:17:55;;;;;;;10.00;1.20;;;4.10;99.90;;;;;;5037895;28;20028;-86
2022/02/21 04:20:27;;;;;;;11.77;1.10;;;4.10;99.90;;;;;;5038093;28;20029;-87
2022/02/21 04:22:53;;;;;;;12.40;1.73;;;4.10;99.90;;;;;;5038305;28;20021;-86
2022/02/21 04:25:19;;;;;;;14.93;1.87;;;4.20;99.90;;;;;;5037548;28;20033;-87
2022/02/21 04:27:51;;;;;;;8.43;1.13;;;4.20;99.90;;;;;;5020440;28;20123;-87
2022/02/21 04:30:22;;;;;;;13.30;1.33;;;4.20;99.90;;;;;;5036326;28;20028;-85
2022/02/21 04:32:48;;;;;;;12.57;1.93;;;4.20;99.90;;;;;;5054184;28;20029;-87
2022/02/21 04:35:16;;;;;;;15.20;2.07;;;4.30;99.90;;;;;;5003280;28;20040;-89
2022/02/21 04:37:42;;;;;;;18.87;2.60;;;4.30;99.90;;;;;;5036324;28;20025;-86
2022/02/21 04:40:14;;;;;;;20.07;2.80;;;4.30;99.90;;;;;;5036292;28;20431;-90
2022/02/21 04:42:40;;;;;;;22.00;2.10;;;4.30;99.90;;;;;;5036240;28;20021;-88
2022/02/21 04:45:06;;;;;;;18.63;1.97;;;4.30;99.90;;;;;;5054340;28;20158;-86
2022/02/21 04:47:32;;;;;;;17.97;2.80;;;4.30;99.90;;;;;;5036473;28;20419;-87
2022/02/21 04:49:58;;;;;;;18.43;2.50;;;4.30;99.90;;;;;;5036949;28;20037;-89
2022/02/21 04:52:23;;;;;;;19.63;2.20;;;4.30;99.90;;;;;;5053975;28;20029;-87
2022/02/21 04:54:49;;;;;;;21.20;2.90;;;4.20;99.90;;;;;;5053902;28;20068;-86
2022/02/21 04:57:15;;;;;;;18.07;1.97;;;4.30;99.90;;;;;;5054086;28;20033;-84
2022/02/21 04:59:41;;;;;;;12.83;1.67;;;4.20;99.90;;;;;;5019616;28;20017;-86
2022/02/21 05:02:06;;;;;;;14.97;1.67;;;4.20;99.90;;;;;;5036205;28;20053;-88
2022/02/21 05:04:32;;;;;;;13.17;2.10;;;4.20;99.90;;;;;;5036285;28;20397;-88
2022/02/21 05:06:58;;;;;;;17.13;2.37;;;4.20;99.90;;;;;;5036109;28;20055;-87
2022/02/21 05:09:24;;;;;;;15.77;2.20;;;4.20;99.90;;;;;;5053921;28;20446;-87
2022/02/21 05:11:49;;;;;;;21.83;2.77;;;4.20;99.90;;;;;;5036234;28;20090;-86
2022/02/21 05:14:15;;;;;;;21.93;2.77;;;4.20;99.90;;;;;;5019536;28;20061;-86
2022/02/21 05:16:41;;;;;;;22.60;2.97;;;4.20;99.90;;;;;;5035768;28;20017;-87
2022/02/21 05:19:06;;;;;;;22.17;3.47;;;4.30;99.90;;;;;;5053717;28;20025;-88
2022/02/21 05:21:32;;;;;;;22.70;2.30;;;4.30;99.90;;;;;;5053773;28;20028;-88
2022/02/21 05:23:58;;;;;;;22.83;3.07;;;4.30;99.90;;;;;;5053593;28;20018;-86
2022/02/21 05:26:25;;;;;;;19.93;1.83;;;4.20;99.90;;;;;;5035955;28;20477;-85
2022/02/21 05:28:52;;;;;;;21.00;2.60;;;4.30;99.90;;;;;;5035832;28;20017;-87
2022/02/21 05:31:18;;;;;;;18.30;1.97;;;4.40;99.90;;;;;;5035597;28;20021;-87
2022/02/21 05:33:44;;;;;;;21.83;2.97;;;4.40;99.90;;;;;;5019286;28;20022;-88
2022/02/21 05:36:10;;;;;;;23.70;2.30;;;4.40;99.90;;;;;;5053792;28;20017;-87
2022/02/21 05:38:36;;;;;;;14.83;2.53;;;4.40;99.90;;;;;;5035926;28;20032;-88
2022/02/21 05:41:02;;;;;;;21.47;2.70;;;4.50;99.90;;;;;;5019265;28;20408;-88
2022/02/21 05:43:27;;;;;;;12.30;1.93;;;4.40;99.90;;;;;;5035651;28;20453;-88
2022/02/21 05:45:53;;;;;;;16.17;2.00;;;4.50;99.90;;;;;;5036376;28;20108;-88
2022/02/21 05:48:19;;;;;;;17.73;2.43;;;4.50;99.90;;;;;;5023497;28;20028;-88
2022/02/21 05:50:44;;;;;;;19.50;2.83;;;4.60;99.90;;;;;;5023306;28;20071;-86
2022/02/21 05:53:11;;;;;;;16.50;3.00;;;4.60;99.90;;;;;;5023197;28;20499;-87
2022/02/21 05:55:37;;;;;;;18.17;2.63;;;4.40;99.90;;;;;;5039624;28;20025;-87
2022/02/21 05:58:02;;;;;;;10.73;2.30;;;4.40;99.90;;;;;;5057222;28;20100;-85
2022/02/21 06:00:28;;;;;;;15.27;2.00;;;4.40;99.90;;;;;;5057365;28;20427;-87
2022/02/21 06:02:54;;;;;;;20.80;3.80;;;4.40;99.90;;;;;;5039643;28;20144;-86
2022/02/21 06:05:19;;;;;;;18.13;2.23;;;4.40;99.90;;;;;;5022924;28;20078;-87
2022/02/21 06:07:45;;;;;;;17.30;2.20;;;4.40;99.90;;;;;;5022875;28;20032;-87
2022/02/21 06:10:10;;;;;;;20.43;2.13;;;4.50;99.90;;;;;;5057482;28;20024;-87
2022/02/21 06:12:36;;;;;;;14.70;2.00;;;4.40;99.90;;;;;;5039351;28;20037;-87
2022/02/21 06:15:03;;;;;;;19.00;1.90;;;4.50;99.90;;;;;;5039146;28;20025;-86
2022/02/21 06:17:29;;;;;;;13.80;2.17;;;4.40;99.90;;;;;;5032781;28;20418;-86
2022/02/21 06:19:54;;;;;;;9.53;2.03;;;4.30;99.90;;;;;;5042527;28;20021;-85
2022/02/21 06:22:21;;;;;;;15.87;1.97;;;4.30;99.90;;;;;;5077079;28;20496;-89
2022/02/21 06:24:47;;;;;;;24.43;3.00;;;4.30;99.90;;;;;;5042694;28;20029;-86
2022/02/21 06:27:13;;;;;;;22.57;2.73;;;4.30;99.90;;;;;;5076823;28;20542;-86
2022/02/21 06:29:39;;;;;;;21.90;2.50;;;4.30;99.90;;;;;;5058955;28;20074;-88
2022/02/21 06:32:05;;;;;;;17.90;2.50;;;4.30;99.90;;;;;;5045838;28;20029;-85
2022/02/21 06:34:31;;;;;;;22.53;2.83;;;4.30;99.90;;;;;;5030575;28;20095;-86
2022/02/21 06:36:57;;;;;;;21.57;2.37;;;4.40;99.90;;;;;;5035890;28;20184;-88
2022/02/21 06:39:22;;;;;;;16.20;2.33;;;4.30;99.90;;;;;;5038062;28;20477;-88
2022/02/21 06:41:49;;;;;;;21.67;2.30;;;4.30;99.90;;;;;;5056161;28;20071;-87
2022/02/21 06:44:15;;;;;;;22.13;3.47;;;4.30;99.90;;;;;;5056322;28;20017;-87
2022/02/21 06:46:42;;;;;;;19.20;2.70;;;4.40;99.90;;;;;;5046391;28;20021;-85
2022/02/21 06:49:11;;;;;;;18.73;2.57;;;4.50;99.90;;;;;;5028923;28;20025;-87
2022/02/21 06:51:37;;;;;;;15.23;2.17;;;4.40;99.90;;;;;;5036422;28;20029;-86
2022/02/21 06:54:05;;;;;;;19.23;1.63;;;4.40;99.90;;;;;;5051125;28;20095;-88
2022/02/21 06:56:30;;;;;;;26.57;2.70;;;4.60;99.90;;;;;;5050719;28;20119;-87
2022/02/21 06:58:56;;;;;;;15.97;2.00;;;4.50;99.90;;;;;;5022364;28;20053;-86
2022/02/21 07:01:22;;;;;;;27.27;3.60;;;4.50;99.90;;;;;;5041447;28;20514;-85
2022/02/21 07:03:48;;;;;;;19.57;2.20;;;4.50;99.90;;;;;;5021558;28;20036;-85
2022/02/21 07:06:14;;;;;;;25.43;3.30;;;4.60;99.90;;;;;;5038443;28;20489;-88
2022/02/21 07:08:41;;;;;;;11.23;2.03;;;4.70;99.90;;;;;;5039804;28;20116;-88
2022/02/21 07:11:08;;;;;;;15.93;1.90;;;4.70;99.90;;;;;;5019276;28;20021;-87
2022/02/21 07:13:34;;;;;;;17.77;2.20;;;4.80;99.90;;;;;;5021614;28;20125;-88
2022/02/21 07:16:00;;;;;;;22.63;2.37;;;4.80;99.90;;;;;;5005503;28;20479;-89
2022/02/21 07:18:26;;;;;;;12.67;2.60;;;4.80;99.50;;;;;;5024494;28;20108;-88
2022/02/21 07:20:52;;;;;;;17.17;2.20;;;4.80;99.90;;;;;;5005762;28;20027;-87
2022/02/21 07:23:18;;;;;;;17.50;2.43;;;4.80;99.90;;;;;;5041584;28;20059;-89
2022/02/21 07:25:43;;;;;;;17.43;2.27;;;4.80;99.90;;;;;;5037454;28;20029;-85
2022/02/21 07:28:09;;;;;;;22.73;2.30;;;4.90;99.40;;;;;;5054596;28;20354;-87
2022/02/21 07:30:35;;;;;;;19.37;2.13;;;4.90;98.70;;;;;;5037288;28;20382;-88
2022/02/21 07:33:01;;;;;;;24.77;2.70;;;4.90;98.60;;;;;;5054839;28;20358;-86
2022/02/21 07:35:26;;;;;;;26.47;1.97;;;4.90;98.30;;;;;;5037301;28;20396;-88
2022/02/21 07:37:53;;;;;;;16.90;2.23;;;4.90;98.70;;;;;;5004624;28;20033;-87
2022/02/21 07:40:19;;;;;;;20.90;1.97;;;5.00;98.40;;;;;;5037141;28;20388;-88
2022/02/21 07:42:49;;;;;;;19.17;2.37;;;5.00;98.60;;;;;;5029188;28;20083;-87
2022/02/21 07:45:16;;;;;;;15.10;2.43;;;5.10;98.50;;;;;;5036804;28;20362;-84
2022/02/21 07:47:47;;;;;;;12.77;1.90;;;5.10;98.90;;;;;;5054240;28;20481;-85
2022/02/21 07:50:13;;;;;;;15.63;1.93;;;5.10;98.70;;;;;;5054725;28;20545;-86
2022/02/21 07:52:39;;;;;;;15.77;2.40;;;5.20;99.10;;;;;;5036932;28;20044;-86
2022/02/21 07:55:05;;;;;;;19.73;2.07;;;5.20;98.80;;;;;;5036531;28;20033;-84
2022/02/21 07:57:31;;;;;;;13.43;2.07;;;5.20;97.90;;;;;;5054953;28;20056;-86
2022/02/21 07:59:57;;;;;;;15.37;1.80;;;5.20;97.90;;;;;;5059197;28;20420;-87
2022/02/21 08:02:24;;;;;;;11.17;1.87;;;5.20;98.70;;;;;;5036035;28;20046;-85
2022/02/21 08:04:50;;;;;;;22.07;2.10;;;5.30;98.30;;;;;;5014953;28;20026;-86
2022/02/21 08:07:15;;;;;;;17.10;2.30;;;5.30;98.40;;;;;;4986802;28;20048;-86
2022/02/21 08:09:41;;;;;;;19.33;3.03;;;5.30;98.40;;;;;;4996434;28;20033;-85
2022/02/21 08:12:08;;;;;;;15.07;2.27;;;5.40;98.00;;;;;;5014890;28;20034;-87
2022/02/21 08:14:35;;;;;;;19.47;2.73;;;5.40;97.80;;;;;;5014866;28;20041;-85
2022/02/21 08:17:01;;;;;;;14.37;1.90;;;5.50;97.80;;;;;;5013497;28;20050;-86
2022/02/21 08:19:27;;;;;;;14.03;2.33;;;5.50;97.60;;;;;;5014678;28;20084;-86
2022/02/21 08:21:52;;;;;;;12.83;2.27;;;5.60;97.00;;;;;;5013865;28;20034;-86
2022/02/21 08:24:19;;;;;;;15.93;2.00;;;5.60;96.90;;;;;;5013474;28;20030;-86
2022/02/21 08:26:45;;;;;;;12.30;2.33;;;5.60;97.50;;;;;;5013408;28;20029;-85
2022/02/21 08:29:11;;;;;;;21.50;2.53;;;5.60;97.20;;;;;;5013249;28;20487;-86
2022/02/21 08:31:45;;;;;;;20.90;2.07;;;5.60;97.20;;;;;;5070952;28;20394;-83
2022/02/21 08:34:11;;;;;;;17.80;2.30;;;5.60;96.40;;;;;;5053184;28;20036;-83
2022/02/21 08:36:37;;;;;;;16.73;2.20;;;5.60;96.40;;;;;;5069578;28;20446;-84
2022/02/21 08:39:03;;;;;;;12.63;1.50;;;5.60;96.80;;;;;;5088089;28;20024;-83
2022/02/21 08:41:29;;;;;;;14.10;2.23;;;5.60;97.20;;;;;;5081003;28;20053;-84
2022/02/21 08:43:56;;;;;;;15.80;1.83;;;5.60;97.00;;;;;;5069467;28;20033;-84
2022/02/21 08:46:23;;;;;;;21.17;3.07;;;5.70;97.30;;;;;;5069232;28;20131;-86
2022/02/21 08:48:49;;;;;;;16.53;1.60;;;5.60;97.20;;;;;;5070294;28;20473;-85
2022/02/21 08:51:15;;;;;;;13.40;2.17;;;5.60;97.00;;;;;;5069241;28;20082;-84
2022/02/21 08:53:41;;;;;;;12.60;1.63;;;5.60;96.80;;;;;;5070449;28;20376;-84
2022/02/21 08:56:07;;;;;;;9.43;1.40;;;5.50;97.60;;;;;;5070550;28;20025;-83
2022/02/21 08:58:34;;;;;;;21.80;2.07;;;5.50;98.50;;;;;;5070400;28;20033;-85
2022/02/21 09:01:00;;;;;;;18.70;2.40;;;5.40;99.90;;;;;;5052647;28;20123;-84
2022/02/21 09:03:26;;;;;;;16.23;2.93;;;5.20;99.90;;;;;;5069008;28;20266;-83
2022/02/21 09:05:55;;;;;;;16.70;2.50;;;5.10;99.90;;;;;;5068953;28;20035;-84
2022/02/21 09:08:21;;;;;;;15.27;1.70;;;5.00;99.90;;;;;;5070198;28;20105;-85
2022/02/21 09:10:47;;;;;;;19.93;2.60;;;5.00;99.90;;;;;;5052246;28;20123;-85
2022/02/21 09:13:13;;;;;;;12.43;2.17;;;4.90;99.90;;;;;;5068806;28;20091;-85
2022/02/21 09:15:38;;;;;;;22.87;2.20;;;4.70;99.90;;;;;;5068260;28;20079;-84
2022/02/21 09:18:05;;;;;;;18.13;2.37;;;4.70;99.90;;;;;;5040751;28;20037;-84
2022/02/21 09:20:36;;;;;;;17.73;2.77;;;4.60;99.90;;;;;;5048865;28;20033;-84
2022/02/21 09:23:02;;;;;;;16.73;2.50;;;4.60;99.90;;;;;;5048852;28;20032;-84
2022/02/21 09:25:28;;;;;;;22.33;3.10;;;4.50;99.90;;;;;;5049665;28;20040;-83
2022/02/21 09:27:54;;;;;;;15.70;2.70;;;4.40;99.90;;;;;;5048554;28;20112;-84
2022/02/21 09:30:19;;;;;;;23.20;3.10;;;4.30;99.90;;;;;;5048236;28;20049;-84
2022/02/21 09:32:45;;;;;;;18.07;2.80;;;4.20;99.90;;;;;;5048249;28;20078;-84
2022/02/21 09:35:11;;;;;;;21.07;3.10;;;4.10;99.90;;;;;;5048333;28;20033;-82
2022/02/21 09:37:38;;;;;;;24.67;4.00;;;4.10;99.90;;;;;;5031818;28;20025;-83
2022/02/21 09:40:09;;;;;;;28.40;2.77;;;3.90;99.90;;;;;;5048323;28;20036;-82
2022/02/21 09:42:37;;;;;;;22.77;3.03;;;4.00;99.90;;;;;;5044957;28;20064;-83
2022/02/21 09:45:05;;;;;;;20.07;3.10;;;3.80;99.90;;;;;;5054382;28;20040;-84
2022/02/21 09:47:31;;;;;;;22.80;3.90;;;3.90;99.90;;;;;;5054926;28;20444;-82
2022/02/21 09:49:57;;;;;;;21.97;3.07;;;3.80;99.90;;;;;;5054785;28;20057;-83
2022/02/21 09:52:25;;;;;;;27.60;3.90;;;3.80;99.90;;;;;;5044853;28;20130;-82
2022/02/21 09:54:51;;;;;;;22.10;2.97;;;3.80;99.90;;;;;;5044214;28;20075;-82
2022/02/21 09:57:17;;;;;;;23.10;4.57;;;3.70;99.90;;;;;;5021702;28;20424;-81
2022/02/21 09:59:43;;;;;;;18.60;3.77;;;3.80;99.90;;;;;;5038204;28;20120;-83
2022/02/21 10:02:23;;;;;;;21.53;4.87;;;3.70;99.90;;;;;;5037516;28;20123;-84
2022/02/21 10:05:11;;;;;;;20.43;4.00;;;3.70;99.90;;;;;;5055896;28;20025;-83
2022/02/21 10:07:38;;;;;;;17.73;3.53;;;3.80;99.90;;;;;;5037800;28;20151;-82
2022/02/21 10:10:05;;;;;;;20.83;4.50;;;3.80;99.90;;;;;;5048595;28;20457;-81
2022/02/21 10:12:31;;;;;;;28.20;4.97;;;3.80;99.90;;;;;;5035699;28;20057;-82
2022/02/21 10:15:09;;;;;;;25.07;5.00;;;3.90;99.90;;;;;;5018263;28;20175;-81
2022/02/21 10:17:34;;;;;;;25.00;4.93;;;3.90;99.90;;;;;;5035540;28;20053;-82
2022/02/21 10:20:05;;;;;;;22.57;4.77;;;3.90;99.90;;;;;;5034224;28;20126;-81
2022/02/21 10:22:32;;;;;;;27.13;5.00;;;3.90;99.90;;;;;;5037462;28;20040;-83
2022/02/21 10:24:59;;;;;;;19.03;4.80;;;3.90;99.90;;;;;;5054145;28;20036;-84
2022/02/21 10:27:29;;;;;;;29.83;5.37;;;3.90;99.90;;;;;;5048209;28;20041;-82
2022/02/21 10:30:00;;;;;;;24.57;4.73;;;3.90;99.90;;;;;;5035265;28;20045;-83
2022/02/21 10:32:32;;;;;;;21.70;4.10;;;3.90;99.90;;;;;;5052306;28;20112;-82
2022/02/21 10:35:30;;;;;;;24.47;4.30;;;3.90;99.90;;;;;;5049190;28;20021;-83
2022/02/21 10:37:58;;;;;;;26.83;4.20;;;4.00;99.90;;;;;;5034662;28;20040;-84
2022/02/21 10:40:35;;;;;;;25.80;3.77;;;4.00;99.90;;;;;;5049248;28;20446;-82
2022/02/21 10:43:09;;;;;;;31.70;4.73;;;3.90;99.90;;;;;;5050432;28;20503;-81
2022/02/21 10:45:37;;;;;;;26.20;5.40;;;3.90;99.90;;;;;;5047147;28;20032;-84
2022/02/21 10:48:10;;;;;;;24.43;3.93;;;3.90;99.90;;;;;;5043656;28;20039;-82
2022/02/21 10:50:38;;;;;;;20.17;4.87;;;3.90;99.90;;;;;;5052435;28;20032;-81
2022/02/21 10:53:11;;;;;;;23.83;3.97;;;3.90;99.90;;;;;;5050830;28;20049;-82
2022/02/21 10:55:40;;;;;;;16.73;2.50;;;3.90;99.90;;;;;;5055210;28;20044;-83
2022/02/21 10:58:27;;;;;;;25.63;4.10;;;3.90;99.90;;;;;;5047675;28;20037;-83
2022/02/21 11:00:55;;;;;;;19.17;3.00;;;3.90;99.90;;;;;;5034734;28;20032;-83
2022/02/21 11:03:23;;;;;;;29.80;4.43;;;3.90;99.90;;;;;;5033366;28;20465;-83
2022/02/21 11:05:50;;;;;;;21.43;3.40;;;3.90;99.90;;;;;;5034623;28;20104;-82
2022/02/21 11:08:18;;;;;;;16.90;2.97;;;4.00;99.90;;;;;;5034667;28;20037;-83
2022/02/21 11:10:46;;;;;;;22.67;3.43;;;4.00;99.90;;;;;;5034383;28;20445;-83
2022/02/21 11:13:15;;;;;;;16.57;4.23;;;4.00;99.90;;;;;;5034609;28;20103;-82
2022/02/21 11:15:41;;;;;;;22.07;3.63;;;4.10;99.90;;;;;;5034521;28;20025;-82
2022/02/21 11:18:12;;;;;;;25.80;3.33;;;4.00;99.90;;;;;;5034117;28;20414;-81
2022/02/21 11:20:38;;;;;;;28.50;3.67;;;4.10;99.90;;;;;;5032885;28;20033;-81
2022/02/21 11:23:05;;;;;;;29.97;4.87;;;4.10;99.90;;;;;;5033050;28;20160;-81
2022/02/21 11:25:58;;;;;;;30.87;4.57;;;4.20;99.90;;;;;;5018979;28;20025;-84
2022/02/21 11:28:29;;;;;;;25.23;3.67;;;4.20;99.90;;;;;;5035805;28;20105;-83
2022/02/21 11:31:00;;;;;;;31.40;4.87;;;4.10;99.90;;;;;;5041883;28;20045;-81
2022/02/21 11:33:26;;;;;;;21.27;3.57;;;4.20;99.90;;;;;;5032774;28;20076;-82
2022/02/21 11:36:14;;;;;;;24.03;3.53;;;4.30;99.90;;;;;;5032845;28;20056;-82
2022/02/21 11:38:41;;;;;;;29.47;3.97;;;4.30;99.90;;;;;;5048237;28;20025;-85
2022/02/21 11:41:11;;;;;;;29.80;4.03;;;4.40;99.90;;;;;;5035527;28;20025;-83
2022/02/21 11:43:43;;;;;;;30.77;4.87;;;4.50;99.90;;;;;;5039200;28;20103;-83
2022/02/21 11:46:24;;;;;;;35.97;5.30;;;4.40;99.90;;;;;;5052401;28;20051;-82
2022/02/21 11:48:56;;;;;;;35.90;5.83;;;4.50;99.90;;;;;;5053872;28;20025;-82
2022/02/21 11:51:40;;;;;;;30.90;4.63;;;4.60;99.90;;;;;;5052197;28;20059;-83
2022/02/21 11:54:11;;;;;;;37.40;5.95;;;4.70;99.90;;;;;;5053700;28;20025;-84
2022/02/21 11:56:49;;;;;;;45.70;5.93;;;4.80;99.90;;;;;;5052429;28;20048;-86
2022/02/21 11:59:21;;;;;;;37.43;7.70;;;4.90;99.90;;;;;;5053642;28;20432;-83
2022/02/21 12:02:06;;;;;;;59.97;7.73;;;5.00;99.90;;;;;;5053563;28;20025;-84
2022/02/21 12:04:59;;;;;;;41.73;6.03;;;5.10;99.90;;;;;;5053150;28;20029;-82
2022/02/21 12:07:32;;;;;;;46.03;6.17;;;5.20;99.90;;;;;;5050413;28;20082;-84
2022/02/21 12:10:22;;;;;;;38.97;6.67;;;5.20;99.90;;;;;;5032469;28;20025;-82
2022/02/21 12:13:10;;;;;;;46.57;6.83;;;5.40;99.90;;;;;;5038725;28;20017;-82
2022/02/21 12:15:36;;;;;;;48.40;6.27;;;5.50;99.90;;;;;;5053512;28;20038;-82
2022/02/21 12:18:08;;;;;;;47.13;7.83;;;5.50;99.90;;;;;;5052160;28;20111;-83
2022/02/21 12:20:39;;;;;;;47.43;6.73;;;5.60;99.90;;;;;;5051999;28;20072;-81
2022/02/21 12:23:15;;;;;;;44.00;7.83;;;5.60;99.90;;;;;;5052510;28;20025;-83
2022/02/21 12:26:02;;;;;;;55.53;7.97;;;5.70;99.90;;;;;;5052290;28;20021;-81
2022/02/21 12:28:34;;;;;;;51.07;6.53;;;5.80;99.90;;;;;;5051828;28;20446;-83
2022/02/21 12:31:01;;;;;;;47.57;7.20;;;5.90;99.90;;;;;;5052814;28;20052;-83
2022/02/21 12:33:31;;;;;;;46.37;6.40;;;6.00;99.90;;;;;;5051868;28;20036;-81
2022/02/21 12:35:59;;;;;;;48.10;6.67;;;6.00;99.90;;;;;;5051770;28;20025;-83
2022/02/21 12:38:29;;;;;;;37.20;6.23;;;6.10;99.90;;;;;;5051787;28;20048;-81
2022/02/21 12:41:05;;;;;;;39.57;5.50;;;6.20;99.90;;;;;;5051859;28;20025;-84
2022/02/21 12:43:54;;;;;;;40.23;6.23;;;6.20;99.90;;;;;;5050930;28;20470;-81
2022/02/21 12:46:40;;;;;;;34.97;6.50;;;6.30;99.90;;;;;;5053330;28;20025;-81
2022/02/21 12:49:14;;;;;;;37.37;6.27;;;6.30;99.90;;;;;;5048839;28;20017;-81
2022/02/21 12:51:39;;;;;;;34.65;5.28;;;6.30;99.90;;;;;;5042915;28;20476;-82
2022/02/21 12:54:10;;;;;;;31.37;5.27;;;6.50;99.90;;;;;;5051464;28;20029;-82